Ns Clipper — A8GW6 — position and weather

sailwx.info

Track history (hours):
 
Tides and Currents Weather Stations Pressure Air Temp Water Temp Dewpoint Dewpoint Depression Visibility Wind Speed Wind Dir Waves Ship Positions

Ns Clipper

Last reported at 2016-Nov-21 17:33 UTC. Time now 2016-Dec-10 01:08 UTC.
Position S 39°13' E 146°12'.
Warning: this ship's position is 18 days out of date.

Length 244 m; draft 9.4 m.

Type: Ship. MMSI: 636012661.

Date/timePositionNaut miles runAvg speedWind from/ knotsBaromVisibWave heightAir tempDewpointWater temp
2016-Nov-21 17:33S 39°13' E 146°12'4213.9
2016-Nov-21 14:33S 39°05' E 147°04'1414.0
2016-Nov-21 13:33S 39°03' E 147°22'4113.5
2016-Nov-21 10:32S 38°58' E 148°14'2814.2
2016-Nov-21 08:33S 38°53' E 148°50'1515.0
2016-Nov-21 07:33S 38°51' E 149°09'3115.7
2016-Nov-21 05:33S 38°47' E 149°49'1514.3
2016-Nov-21 04:31S 38°45' E 150°08'3114.1
2016-Nov-21 02:19S 38°41' E 150°47'  
Track history (hours):
 
Tides and Currents Weather Stations Pressure Air Temp Water Temp Dewpoint Dewpoint Depression Visibility Wind Speed Wind Dir Waves Ship Positions

Ns Clipper

Last reported at 2016-Nov-21 17:33 UTC. Time now 2016-Dec-10 01:08 UTC.
Position S 39°13' E 146°12'.
Warning: this ship's position is 18 days out of date.

Length 244 m; draft 9.4 m.

Type: Ship. MMSI: 636012661.

Date/timePositionNaut miles runAvg speedWind from/ knotsBaromVisibWave heightAir tempDewpointWater temp
2016-Nov-21 17:33S 39°13' E 146°12'4213.9
2016-Nov-21 14:33S 39°05' E 147°04'1414.0
2016-Nov-21 13:33S 39°03' E 147°22'4113.5
2016-Nov-21 10:32S 38°58' E 148°14'2814.2
2016-Nov-21 08:33S 38°53' E 148°50'1515.0
2016-Nov-21 07:33S 38°51' E 149°09'3115.7
2016-Nov-21 05:33S 38°47' E 149°49'1514.3
2016-Nov-21 04:31S 38°45' E 150°08'3114.1
2016-Nov-21 02:19S 38°41' E 150°47'  

Dump ship's entire track history